Главная страница
METAR-TAF:

METAR-TAF

Аэропорты :

Harriman-and-West Airport

North Adams, Массачусетс, США

широта: 42-41-50N, долгота: 073-10-13W, высота над уровнем моря: 199 м

Текущие метеонаблюдения

Эта сводка был подготовлена 36 минут назад, в 03:52 UTC
Штиль
Температура 14°C
Влажность 82%
Давление 1012 hPa
Видимость: 16.1 км
ясное небо

METAR: KAQW 270352Z AUTO 00000KT 10SM CLR 14/11 A2989 RMK AO2 SLP120 T01390111

Время: 00:28 (04:28 UTC)


TAF: отсутствует

Метеонаблюдения и прогнозы для более 4000 аэропортов (сводки METAR и TAF).

Имеющиеся станции представлены на карте желтыми и красными точками.

Чтобы увидеть название станции, наведите на нее мышь.

Затем щелкните, чтобы увидеть метеонаблюдения и метеопрогнозы.

Управление картой: чтобы увеличить масштаб, щелкните зеленые кнопки с черным крестиком; чтобы уменьшить масштаб, щелкните зеленую кнопку с тире; для просмотра соседних карт щелкайте зеленые стрелки.


METAR-TAF: